Time;durP1;ratioP1;P1;durP2;ratioP2;P2;SDS_P1;SDS_P2;PMS_P1;PMS_P2;Temp;Humidity;BMP_temperature;BMP_pressure;BME280_temperature;BME280_humidity;BME280_pressure;Samples;Min_cycle;Max_cycle;Signal;HPM_P1;HPM_P2
2023/07/20 00:02:24;;;;;;;1.67;1.38;;;16.90;99.90;;;;;;4973848;28;20054;-71
2023/07/20 00:04:49;;;;;;;2.08;1.33;;;16.90;99.90;;;;;;4986163;28;20054;-72
2023/07/20 00:07:15;;;;;;;2.53;1.50;;;16.90;99.90;;;;;;4964988;28;20095;-71
2023/07/20 00:09:40;;;;;;;2.00;1.50;;;16.80;99.90;;;;;;4969509;28;20076;-71
2023/07/20 00:12:07;;;;;;;1.85;1.50;;;16.80;99.90;;;;;;4994180;28;20967;-71
2023/07/20 00:14:32;;;;;;;3.17;1.85;;;16.80;99.90;;;;;;4984873;28;20057;-71
2023/07/20 00:16:58;;;;;;;2.53;1.83;;;16.80;99.90;;;;;;4988953;28;20046;-72
2023/07/20 00:19:25;;;;;;;2.47;1.80;;;16.90;99.90;;;;;;4981259;28;20108;-71
2023/07/20 00:21:52;;;;;;;1.85;1.50;;;16.80;99.90;;;;;;4988464;28;20053;-72
2023/07/20 00:24:17;;;;;;;1.90;1.80;;;16.80;99.90;;;;;;4990801;28;20050;-71
2023/07/20 00:26:44;;;;;;;2.35;1.80;;;16.80;99.90;;;;;;4967850;28;20068;-71
2023/07/20 00:29:09;;;;;;;2.70;1.83;;;16.80;99.90;;;;;;4972466;28;20050;-71
2023/07/20 00:31:36;;;;;;;2.35;2.10;;;16.80;99.90;;;;;;4968228;28;20065;-71
2023/07/20 00:34:03;;;;;;;1.83;1.70;;;16.80;99.90;;;;;;4985966;28;20050;-71
2023/07/20 00:36:29;;;;;;;2.72;1.67;;;16.70;99.90;;;;;;4983047;28;20080;-71
2023/07/20 00:38:54;;;;;;;2.88;1.83;;;16.70;99.90;;;;;;4988794;28;20124;-72
2023/07/20 00:41:20;;;;;;;2.75;1.90;;;16.70;99.90;;;;;;4986083;28;20046;-71
2023/07/20 00:43:46;;;;;;;2.45;2.00;;;16.70;99.90;;;;;;4988761;28;20048;-72
2023/07/20 00:46:12;;;;;;;2.22;2.00;;;16.70;99.90;;;;;;4971958;28;20050;-71
2023/07/20 00:48:38;;;;;;;2.83;1.90;;;16.70;99.90;;;;;;4973799;28;20456;-72
2023/07/20 00:51:04;;;;;;;2.40;1.98;;;16.70;99.90;;;;;;4995193;28;20493;-71
2023/07/20 00:53:30;;;;;;;2.47;2.03;;;16.70;99.90;;;;;;4988220;28;20041;-70
2023/07/20 00:55:56;;;;;;;2.53;2.05;;;16.70;99.90;;;;;;4985793;28;20924;-72
2023/07/20 00:58:22;;;;;;;2.45;2.13;;;16.70;99.90;;;;;;4964159;28;20030;-71
2023/07/20 01:00:47;;;;;;;3.13;2.28;;;16.60;99.90;;;;;;4981477;28;20093;-72
2023/07/20 01:03:13;;;;;;;2.17;1.98;;;16.70;99.90;;;;;;4996562;28;20077;-73
2023/07/20 01:05:55;;;;;;;2.72;2.30;;;16.70;99.90;;;;;;4975121;28;20061;-72
2023/07/20 01:08:40;;;;;;;2.47;1.95;;;16.70;99.90;;;;;;4987103;28;20254;-72
2023/07/20 01:11:16;;;;;;;2.63;2.20;;;16.60;99.90;;;;;;4995664;28;20053;-71
2023/07/20 01:13:43;;;;;;;3.13;2.10;;;16.60;99.90;;;;;;4980108;28;20409;-71
2023/07/20 01:16:09;;;;;;;2.65;2.17;;;16.60;99.90;;;;;;4995958;28;20047;-71
2023/07/20 01:18:35;;;;;;;2.25;2.05;;;16.60;99.90;;;;;;4968760;28;20053;-71
2023/07/20 01:21:08;;;;;;;2.65;2.15;;;16.70;99.90;;;;;;4962572;28;20042;-72
2023/07/20 01:23:50;;;;;;;2.33;1.88;;;16.60;99.90;;;;;;4975311;28;20050;-72
2023/07/20 01:26:40;;;;;;;2.08;1.88;;;16.60;99.90;;;;;;4971259;28;20082;-72
2023/07/20 01:29:27;;;;;;;2.63;2.35;;;16.60;99.90;;;;;;4979334;28;20186;-71
2023/07/20 01:31:55;;;;;;;3.47;1.98;;;16.60;99.90;;;;;;4980790;28;20057;-72
2023/07/20 01:34:23;;;;;;;2.22;1.80;;;16.60;99.90;;;;;;4967395;28;20085;-71
2023/07/20 01:36:52;;;;;;;2.65;2.08;;;16.60;99.90;;;;;;4963505;28;20054;-71
2023/07/20 01:39:19;;;;;;;2.20;2.00;;;16.60;99.90;;;;;;4989146;28;20054;-71
2023/07/20 01:41:45;;;;;;;2.60;2.08;;;16.50;99.90;;;;;;4968736;28;20046;-71
2023/07/20 01:44:12;;;;;;;3.05;1.98;;;16.50;99.90;;;;;;4975323;28;20116;-71
2023/07/20 01:46:38;;;;;;;3.38;2.10;;;16.50;99.90;;;;;;4989548;28;22427;-72
2023/07/20 01:49:04;;;;;;;2.38;2.08;;;16.50;99.90;;;;;;4999778;28;20092;-71
2023/07/20 01:51:29;;;;;;;3.03;2.20;;;16.50;99.90;;;;;;4994218;28;20089;-71
2023/07/20 01:53:55;;;;;;;2.90;2.40;;;16.50;99.90;;;;;;4971353;28;20046;-71
2023/07/20 01:56:21;;;;;;;2.30;2.00;;;16.40;99.90;;;;;;4972185;28;20100;-70
2023/07/20 01:58:46;;;;;;;3.28;2.00;;;16.40;99.90;;;;;;4983961;28;20077;-71
2023/07/20 02:01:12;;;;;;;2.30;1.90;;;16.40;99.90;;;;;;4998416;28;20501;-71
2023/07/20 02:03:38;;;;;;;3.00;2.00;;;16.40;99.90;;;;;;4979365;28;20066;-72
2023/07/20 02:06:03;;;;;;;1.80;1.70;;;16.40;99.90;;;;;;4968897;28;20049;-71
2023/07/20 02:08:29;;;;;;;2.42;2.08;;;16.40;99.90;;;;;;4984724;28;20061;-71
2023/07/20 02:10:54;;;;;;;3.25;2.10;;;16.30;99.90;;;;;;4988008;28;20053;-71
2023/07/20 02:13:20;;;;;;;3.15;2.13;;;16.40;99.90;;;;;;4973099;28;20057;-71
2023/07/20 02:15:47;;;;;;;4.20;2.13;;;16.30;99.90;;;;;;4993463;28;20045;-71
2023/07/20 02:18:13;;;;;;;2.85;2.13;;;16.30;99.90;;;;;;4975171;28;20050;-71
2023/07/20 02:20:40;;;;;;;3.17;2.60;;;16.30;99.90;;;;;;4969317;28;20050;-71
2023/07/20 02:23:05;;;;;;;3.35;2.75;;;16.20;99.90;;;;;;4976182;28;20049;-72
2023/07/20 02:25:31;;;;;;;2.85;2.65;;;16.20;99.90;;;;;;4968758;28;20077;-71
2023/07/20 02:27:58;;;;;;;2.75;2.55;;;16.20;99.90;;;;;;4989445;28;20037;-72
2023/07/20 02:30:23;;;;;;;3.63;3.33;;;16.10;99.90;;;;;;4970748;28;20061;-71
2023/07/20 02:32:49;;;;;;;3.78;2.60;;;16.10;99.90;;;;;;4966949;28;20057;-72
2023/07/20 02:35:16;;;;;;;3.63;3.05;;;16.10;99.90;;;;;;4987158;28;20042;-71
2023/07/20 02:37:42;;;;;;;5.03;2.80;;;16.10;99.90;;;;;;4987924;28;20056;-71
2023/07/20 02:40:08;;;;;;;3.80;3.40;;;16.00;99.90;;;;;;4986738;28;20037;-71
2023/07/20 02:42:34;;;;;;;4.40;3.25;;;16.00;99.90;;;;;;4991970;28;20092;-72
2023/07/20 02:45:01;;;;;;;6.03;3.70;;;15.90;99.90;;;;;;4977291;28;20053;-71
2023/07/20 02:47:26;;;;;;;3.65;3.35;;;15.90;99.90;;;;;;4988956;28;20054;-70
2023/07/20 02:49:52;;;;;;;4.07;3.30;;;15.80;99.90;;;;;;4988770;28;20100;-71
2023/07/20 02:52:17;;;;;;;4.15;3.35;;;15.80;99.90;;;;;;4992111;28;20069;-71
2023/07/20 02:54:43;;;;;;;4.45;3.67;;;15.80;99.90;;;;;;4993548;28;20124;-71
2023/07/20 02:57:09;;;;;;;3.90;3.53;;;15.80;99.90;;;;;;4986681;28;20055;-71
2023/07/20 02:59:34;;;;;;;4.65;3.80;;;15.70;99.90;;;;;;4993584;28;20061;-71
2023/07/20 03:02:00;;;;;;;4.43;4.03;;;15.70;99.90;;;;;;4993719;28;20144;-71
2023/07/20 03:04:27;;;;;;;4.60;4.20;;;15.60;99.90;;;;;;4971789;28;20077;-70
2023/07/20 03:06:53;;;;;;;4.53;4.13;;;15.60;99.90;;;;;;4970586;28;20144;-70
2023/07/20 03:09:18;;;;;;;5.07;4.28;;;15.60;99.90;;;;;;4967756;28;20446;-70
2023/07/20 03:11:44;;;;;;;5.20;4.80;;;15.50;99.90;;;;;;4992686;28;20056;-70
2023/07/20 03:14:10;;;;;;;6.53;5.78;;;15.50;99.90;;;;;;4971067;28;20461;-72
2023/07/20 03:16:36;;;;;;;6.78;6.15;;;15.50;99.90;;;;;;4981683;28;20869;-70
2023/07/20 03:19:02;;;;;;;6.32;5.55;;;15.40;99.90;;;;;;4979621;28;20424;-70
2023/07/20 03:21:28;;;;;;;6.70;6.10;;;15.40;99.90;;;;;;4991211;28;20158;-71
2023/07/20 03:23:54;;;;;;;7.15;6.45;;;15.40;99.90;;;;;;4988325;28;20057;-70
2023/07/20 03:26:20;;;;;;;7.05;6.43;;;15.40;99.90;;;;;;4991242;28;20054;-71
2023/07/20 03:28:46;;;;;;;6.95;6.35;;;15.40;99.90;;;;;;4993968;28;20133;-70
2023/07/20 03:31:11;;;;;;;7.38;6.78;;;15.40;99.90;;;;;;4973862;28;20136;-70
2023/07/20 03:33:37;;;;;;;7.75;6.85;;;15.30;99.90;;;;;;4989818;28;20099;-70
2023/07/20 03:36:06;;;;;;;7.20;6.50;;;15.30;99.90;;;;;;4984404;28;20049;-71
2023/07/20 03:38:34;;;;;;;8.00;6.35;;;15.30;99.90;;;;;;4973506;28;20066;-70
2023/07/20 03:41:00;;;;;;;8.10;6.75;;;15.30;99.90;;;;;;4985461;28;20062;-70
2023/07/20 03:43:27;;;;;;;7.93;6.70;;;15.20;99.90;;;;;;4972061;28;20049;-71
2023/07/20 03:45:54;;;;;;;7.15;6.45;;;15.20;99.90;;;;;;4974526;28;20119;-70
2023/07/20 03:48:21;;;;;;;7.15;5.85;;;15.20;99.90;;;;;;4983445;28;20052;-70
2023/07/20 03:50:49;;;;;;;7.10;6.50;;;15.20;99.90;;;;;;4971612;28;20042;-70
2023/07/20 03:53:15;;;;;;;;;;;15.20;99.90;;;;;;4987711;28;20104;-70
2023/07/20 03:55:46;;;;;;;7.57;6.50;;;15.10;99.90;;;;;;4985191;28;20368;-70
2023/07/20 03:58:12;;;;;;;6.03;5.53;;;15.10;99.90;;;;;;4987014;28;20038;-72
2023/07/20 04:00:37;;;;;;;6.55;5.95;;;15.10;99.90;;;;;;4979195;28;20815;-72
2023/07/20 04:03:03;;;;;;;8.65;6.43;;;15.10;99.90;;;;;;4977031;28;20062;-71
2023/07/20 04:05:29;;;;;;;6.70;6.10;;;15.10;99.90;;;;;;4970556;28;20057;-70
2023/07/20 04:07:55;;;;;;;6.60;6.00;;;15.10;99.90;;;;;;4985753;28;20045;-72
2023/07/20 04:10:20;;;;;;;6.80;6.20;;;15.10;99.90;;;;;;4987970;28;20121;-71
2023/07/20 04:12:49;;;;;;;6.28;5.70;;;15.10;99.90;;;;;;4993264;28;20058;-70
2023/07/20 04:15:15;;;;;;;7.60;6.55;;;15.10;99.90;;;;;;4984387;28;20046;-70
2023/07/20 04:17:41;;;;;;;6.47;5.80;;;15.10;99.90;;;;;;4977001;28;20049;-70
2023/07/20 04:20:07;;;;;;;5.88;5.35;;;15.10;99.90;;;;;;4970229;28;20116;-71
2023/07/20 04:22:33;;;;;;;6.35;5.78;;;15.10;99.90;;;;;;4971093;28;20501;-70
2023/07/20 04:24:59;;;;;;;5.97;5.22;;;15.10;99.90;;;;;;4983210;28;20134;-72
2023/07/20 04:27:25;;;;;;;6.38;5.78;;;15.10;99.90;;;;;;4976351;28;20046;-70
2023/07/20 04:29:50;;;;;;;7.40;6.10;;;15.10;99.90;;;;;;4973609;28;20054;-71
2023/07/20 04:32:16;;;;;;;6.82;5.88;;;15.10;99.90;;;;;;4994710;28;20639;-70
2023/07/20 04:34:42;;;;;;;6.70;6.10;;;15.10;99.90;;;;;;4975907;28;20061;-70
2023/07/20 04:37:08;;;;;;;6.32;5.75;;;15.10;99.90;;;;;;4983567;28;20057;-71
2023/07/20 04:39:33;;;;;;;6.32;5.72;;;15.10;99.90;;;;;;4968993;28;20056;-71
2023/07/20 04:41:59;;;;;;;6.28;5.68;;;15.10;99.90;;;;;;4981879;28;20034;-71
2023/07/20 04:44:25;;;;;;;6.53;5.88;;;15.10;99.90;;;;;;4962744;28;21373;-71
2023/07/20 04:46:50;;;;;;;6.30;5.70;;;15.10;99.90;;;;;;4986896;28;20041;-71
2023/07/20 04:49:16;;;;;;;6.25;5.75;;;15.10;99.90;;;;;;4971180;28;20046;-71
2023/07/20 04:51:42;;;;;;;6.32;5.55;;;15.20;99.90;;;;;;4990700;28;20092;-72
2023/07/20 04:54:08;;;;;;;5.85;5.28;;;15.20;99.90;;;;;;4990642;28;20041;-70
2023/07/20 04:56:33;;;;;;;5.70;5.20;;;15.20;99.90;;;;;;4975201;28;20096;-70
2023/07/20 04:58:59;;;;;;;5.88;5.38;;;15.30;99.90;;;;;;4984643;28;20046;-72
2023/07/20 05:01:26;;;;;;;5.78;5.28;;;15.30;99.90;;;;;;4981297;28;20049;-71
2023/07/20 05:03:52;;;;;;;5.60;5.10;;;15.30;99.90;;;;;;4995084;28;20456;-72
2023/07/20 05:06:18;;;;;;;5.68;5.18;;;15.30;99.90;;;;;;4968260;28;20120;-70
2023/07/20 05:08:44;;;;;;;5.40;4.80;;;15.40;99.90;;;;;;4968858;28;20723;-70
2023/07/20 05:11:10;;;;;;;7.05;4.60;;;15.40;99.90;;;;;;4991439;28;20049;-70
2023/07/20 05:13:36;;;;;;;6.45;4.90;;;15.40;99.90;;;;;;4995889;28;20045;-71
2023/07/20 05:16:02;;;;;;;5.55;4.75;;;15.40;99.90;;;;;;4996885;28;20045;-71
2023/07/20 05:18:27;;;;;;;5.05;4.55;;;15.40;99.90;;;;;;4994208;28;20061;-71
2023/07/20 05:20:54;;;;;;;5.03;4.57;;;15.50;99.90;;;;;;4995459;28;20064;-70
2023/07/20 05:23:21;;;;;;;5.18;4.45;;;15.50;99.90;;;;;;4992864;28;20054;-69
2023/07/20 05:25:53;;;;;;;4.50;4.10;;;15.60;99.90;;;;;;4968474;28;20607;-69
2023/07/20 05:28:19;;;;;;;5.82;4.55;;;15.60;99.90;;;;;;4979282;28;20050;-70
2023/07/20 05:30:44;;;;;;;4.10;3.70;;;15.60;99.90;;;;;;4971955;28;20094;-70
2023/07/20 05:33:10;;;;;;;6.28;3.90;;;15.70;99.90;;;;;;4977805;28;20100;-70
2023/07/20 05:35:37;;;;;;;3.70;3.40;;;15.70;99.90;;;;;;4969691;28;20056;-70
2023/07/20 05:38:05;;;;;;;3.55;3.25;;;15.80;99.90;;;;;;4976490;28;20401;-72
2023/07/20 05:40:30;;;;;;;4.40;3.63;;;15.90;99.90;;;;;;4969265;28;20396;-71
2023/07/20 05:42:56;;;;;;;5.38;3.38;;;16.00;99.90;;;;;;4976946;28;20050;-71
2023/07/20 05:45:22;;;;;;;5.65;3.45;;;16.00;99.90;;;;;;4977425;28;20062;-70
2023/07/20 05:47:48;;;;;;;3.67;3.30;;;16.10;99.90;;;;;;4967926;28;20394;-70
2023/07/20 05:50:14;;;;;;;3.55;2.90;;;16.10;99.90;;;;;;4971673;28;20053;-71
2023/07/20 05:52:40;;;;;;;3.88;2.88;;;16.20;99.90;;;;;;4970393;28;20033;-70
2023/07/20 05:55:06;;;;;;;3.42;2.30;;;16.20;99.90;;;;;;4984784;28;20050;-70
2023/07/20 05:57:32;;;;;;;3.85;2.03;;;16.30;99.90;;;;;;4981841;28;20046;-71
2023/07/20 05:59:58;;;;;;;2.97;2.05;;;16.30;99.90;;;;;;4981603;28;20058;-71
2023/07/20 06:02:24;;;;;;;2.78;1.90;;;16.30;99.90;;;;;;4966519;28;20382;-72
2023/07/20 06:04:50;;;;;;;2.75;1.70;;;16.40;99.90;;;;;;4973773;28;20443;-70
2023/07/20 06:07:15;;;;;;;2.95;1.80;;;16.40;99.90;;;;;;4979153;28;20073;-71
2023/07/20 06:09:41;;;;;;;2.15;1.60;;;16.50;99.90;;;;;;4978198;28;20124;-70
2023/07/20 06:12:07;;;;;;;2.85;1.30;;;16.60;99.90;;;;;;4975690;28;20141;-71
2023/07/20 06:14:36;;;;;;;3.67;1.60;;;16.60;99.90;;;;;;4983336;28;20121;-70
2023/07/20 06:17:02;;;;;;;2.95;1.50;;;16.60;99.90;;;;;;4986260;28;20057;-72
2023/07/20 06:19:28;;;;;;;3.60;1.80;;;16.70;99.90;;;;;;4964025;28;20085;-71
2023/07/20 06:21:54;;;;;;;2.70;1.70;;;16.70;99.90;;;;;;4972219;28;22231;-71
2023/07/20 06:24:19;;;;;;;4.57;1.65;;;16.80;99.90;;;;;;4971849;28;20045;-70
2023/07/20 06:26:45;;;;;;;2.60;1.30;;;16.80;99.90;;;;;;4974005;28;20068;-70
2023/07/20 06:29:11;;;;;;;3.08;1.30;;;16.80;99.90;;;;;;4966199;28;20070;-70
2023/07/20 06:31:37;;;;;;;1.85;1.27;;;16.90;99.90;;;;;;4975998;28;20115;-69
2023/07/20 06:34:03;;;;;;;3.25;1.27;;;16.90;99.90;;;;;;4963439;28;20037;-71
2023/07/20 06:36:29;;;;;;;3.15;1.30;;;17.00;99.90;;;;;;4973613;28;20050;-70
2023/07/20 06:38:55;;;;;;;2.55;1.08;;;17.10;99.90;;;;;;4983499;28;20453;-70
2023/07/20 06:41:22;;;;;;;3.10;0.95;;;17.10;99.90;;;;;;4963748;28;20056;-72
2023/07/20 06:43:48;;;;;;;3.45;1.25;;;17.10;99.90;;;;;;4975290;28;20422;-72
2023/07/20 06:46:14;;;;;;;2.20;1.10;;;17.20;99.90;;;;;;4989769;28;20041;-72
2023/07/20 06:48:39;;;;;;;2.33;1.25;;;17.20;99.90;;;;;;4990601;28;20080;-72
2023/07/20 06:51:05;;;;;;;3.88;1.40;;;17.30;99.90;;;;;;4974718;28;20052;-73
2023/07/20 06:53:31;;;;;;;2.78;1.15;;;17.40;99.90;;;;;;4984279;28;20612;-73
2023/07/20 06:55:57;;;;;;;4.22;1.00;;;17.50;99.90;;;;;;4981414;28;20100;-72
2023/07/20 06:58:24;;;;;;;3.25;1.10;;;17.50;99.90;;;;;;4978429;28;20513;-72
2023/07/20 07:00:49;;;;;;;4.40;1.20;;;17.60;99.90;;;;;;4966494;28;20058;-72
2023/07/20 07:03:15;;;;;;;2.97;1.00;;;17.70;99.90;;;;;;4989371;28;20050;-72
2023/07/20 07:05:41;;;;;;;1.67;0.98;;;17.60;99.90;;;;;;4965757;28;20100;-71
2023/07/20 07:08:07;;;;;;;4.07;1.10;;;17.70;99.90;;;;;;4976307;28;20116;-73
2023/07/20 07:10:36;;;;;;;3.58;0.88;;;17.80;99.90;;;;;;4981010;28;20060;-73
2023/07/20 07:13:02;;;;;;;2.88;0.90;;;17.80;99.90;;;;;;4990149;28;20049;-72
2023/07/20 07:15:28;;;;;;;3.40;0.90;;;17.80;99.90;;;;;;4991946;28;20057;-72
2023/07/20 07:17:54;;;;;;;2.45;1.08;;;17.90;99.90;;;;;;4988377;28;20409;-73
2023/07/20 07:20:20;;;;;;;2.70;1.00;;;17.90;99.90;;;;;;4970438;28;20065;-69
2023/07/20 07:22:46;;;;;;;3.75;1.00;;;18.00;99.90;;;;;;4963592;28;20037;-72
2023/07/20 07:25:12;;;;;;;1.85;0.88;;;18.00;99.90;;;;;;4992156;28;20517;-71
2023/07/20 07:27:38;;;;;;;2.22;0.90;;;18.00;99.90;;;;;;4989167;28;20054;-72
2023/07/20 07:30:04;;;;;;;2.85;1.27;;;18.00;99.90;;;;;;4976159;28;20425;-71
2023/07/20 07:32:30;;;;;;;2.42;0.90;;;18.00;99.90;;;;;;4967477;28;20091;-73
2023/07/20 07:34:58;;;;;;;5.07;1.10;;;18.00;99.90;;;;;;4981300;28;20165;-75
2023/07/20 07:37:24;;;;;;;4.78;1.23;;;18.00;99.90;;;;;;4994291;28;20099;-73
2023/07/20 07:39:49;;;;;;;4.32;1.00;;;17.90;99.90;;;;;;4972788;28;20044;-74
2023/07/20 07:42:15;;;;;;;3.90;0.90;;;17.90;99.90;;;;;;4993142;28;20116;-74
2023/07/20 07:44:41;;;;;;;3.85;1.08;;;17.90;99.90;;;;;;4978224;28;20124;-73
2023/07/20 07:47:07;;;;;;;3.10;1.20;;;18.00;99.90;;;;;;4976401;28;20046;-74
2023/07/20 07:49:32;;;;;;;2.80;1.10;;;18.00;99.90;;;;;;4988623;28;20374;-72
2023/07/20 07:51:58;;;;;;;3.63;1.33;;;18.10;99.90;;;;;;4981107;28;20143;-73
2023/07/20 07:54:24;;;;;;;4.47;1.10;;;18.20;99.90;;;;;;4972006;28;20050;-73
2023/07/20 07:56:51;;;;;;;4.75;1.23;;;18.10;99.90;;;;;;4991070;28;20099;-73
2023/07/20 07:59:17;;;;;;;3.78;0.90;;;18.10;99.90;;;;;;4971823;28;20050;-73
2023/07/20 08:01:42;;;;;;;3.88;1.20;;;18.20;99.90;;;;;;4991705;28;20046;-72
2023/07/20 08:04:08;;;;;;;2.35;1.23;;;18.30;99.90;;;;;;4970003;28;20077;-72
2023/07/20 08:06:35;;;;;;;;;;;18.50;99.90;;;;;;4974377;28;20060;-72
2023/07/20 08:09:03;;;;;;;3.90;1.10;;;18.60;99.90;;;;;;4986738;28;20730;-72
2023/07/20 08:11:30;;;;;;;2.95;1.17;;;18.70;99.90;;;;;;4989222;28;20046;-72
2023/07/20 08:13:56;;;;;;;5.47;1.15;;;18.80;99.90;;;;;;4980664;28;20057;-72
2023/07/20 08:16:22;;;;;;;3.35;1.10;;;18.90;99.90;;;;;;4998155;28;21227;-71
2023/07/20 08:18:48;;;;;;;3.30;1.02;;;19.00;99.90;;;;;;4981186;28;20033;-71
2023/07/20 08:21:13;;;;;;;4.97;1.23;;;19.10;99.90;;;;;;4993382;28;20136;-72
2023/07/20 08:23:39;;;;;;;1.75;0.85;;;19.10;99.90;;;;;;4974496;28;20500;-71
2023/07/20 08:26:05;;;;;;;2.33;0.90;;;19.20;99.90;;;;;;4985047;28;20053;-71
2023/07/20 08:28:31;;;;;;;2.33;1.00;;;19.30;99.90;;;;;;4966668;28;20052;-71
2023/07/20 08:30:57;;;;;;;2.50;0.98;;;19.40;99.90;;;;;;4989034;28;20057;-73
2023/07/20 08:33:23;;;;;;;2.30;1.02;;;19.40;99.90;;;;;;4990443;28;21032;-71
2023/07/20 08:35:49;;;;;;;2.70;1.03;;;19.50;99.90;;;;;;4988899;28;20050;-72
2023/07/20 08:38:14;;;;;;;2.90;1.00;;;19.60;99.90;;;;;;4982584;28;20077;-71
2023/07/20 08:40:46;;;;;;;2.38;0.90;;;19.80;99.90;;;;;;4990498;28;20042;-70
2023/07/20 08:43:13;;;;;;;2.88;1.10;;;19.80;99.90;;;;;;4977676;28;20046;-70
2023/07/20 08:45:40;;;;;;;3.17;0.93;;;19.60;99.90;;;;;;4995910;28;20053;-71
2023/07/20 08:48:07;;;;;;;1.95;0.93;;;19.60;99.90;;;;;;4980365;28;20054;-71
2023/07/20 08:50:33;;;;;;;;;;;19.60;99.90;;;;;;4990981;28;20138;-71
2023/07/20 08:53:00;;;;;;;1.67;0.80;;;19.60;99.90;;;;;;4971163;28;19925;-70
2023/07/20 08:55:29;;;;;;;2.60;0.80;;;19.80;99.90;;;;;;4988486;28;20077;-71
2023/07/20 08:57:56;;;;;;;2.13;0.90;;;19.80;99.90;;;;;;4971940;28;20046;-70
2023/07/20 09:00:22;;;;;;;2.22;1.10;;;19.80;99.90;;;;;;4976899;28;20422;-71
2023/07/20 09:02:53;;;;;;;2.55;0.90;;;19.70;99.90;;;;;;4986028;28;20064;-71
2023/07/20 09:05:20;;;;;;;3.08;1.02;;;19.70;99.90;;;;;;4976581;28;20172;-73
2023/07/20 09:07:46;;;;;;;1.77;0.90;;;19.70;99.90;;;;;;4993652;28;20930;-72
2023/07/20 09:10:12;;;;;;;2.88;1.00;;;19.80;99.90;;;;;;4991686;28;20052;-73
2023/07/20 09:12:39;;;;;;;3.20;1.33;;;19.90;99.90;;;;;;4967325;28;20045;-72
2023/07/20 09:15:06;;;;;;;3.43;1.00;;;20.00;99.90;;;;;;4977724;28;20080;-71
2023/07/20 09:17:32;;;;;;;2.22;0.85;;;20.00;99.90;;;;;;4984965;28;20092;-71
2023/07/20 09:19:58;;;;;;;3.72;1.02;;;19.90;99.90;;;;;;4975316;28;20046;-71
2023/07/20 09:22:31;;;;;;;3.90;1.00;;;19.90;99.90;;;;;;4969379;28;20123;-71
2023/07/20 09:24:57;;;;;;;2.25;0.98;;;19.90;99.90;;;;;;4979646;28;20091;-71
2023/07/20 09:27:36;;;;;;;1.55;0.80;;;19.90;99.90;;;;;;4989330;28;20058;-72
2023/07/20 09:30:01;;;;;;;3.17;1.00;;;19.90;99.90;;;;;;4973436;28;20057;-70
2023/07/20 09:32:27;;;;;;;1.58;1.00;;;19.90;99.90;;;;;;4976884;28;20046;-71
2023/07/20 09:34:53;;;;;;;2.95;0.98;;;19.90;99.90;;;;;;4965720;28;20047;-72
2023/07/20 09:37:22;;;;;;;2.28;0.80;;;19.90;99.90;;;;;;4984255;28;20104;-72
2023/07/20 09:39:51;;;;;;;3.80;1.13;;;20.00;99.90;;;;;;4962844;28;20085;-73
2023/07/20 09:42:21;;;;;;;3.47;0.80;;;20.10;99.90;;;;;;4985661;28;20105;-73
2023/07/20 09:44:48;;;;;;;1.70;0.77;;;20.20;99.90;;;;;;4998488;28;20046;-73
2023/07/20 09:47:22;;;;;;;2.67;0.77;;;20.40;99.90;;;;;;4969051;28;20552;-73
2023/07/20 09:49:48;;;;;;;3.38;1.30;;;20.40;99.90;;;;;;4965780;28;20070;-72
2023/07/20 09:52:14;;;;;;;3.25;0.90;;;20.40;99.90;;;;;;4989812;28;20046;-73
2023/07/20 09:54:40;;;;;;;3.17;0.80;;;20.30;99.90;;;;;;4994985;28;20058;-72
2023/07/20 09:57:08;;;;;;;2.13;0.80;;;20.10;99.90;;;;;;4996387;28;20037;-71
2023/07/20 09:59:34;;;;;;;1.95;0.90;;;20.00;99.90;;;;;;4991257;28;20058;-70
2023/07/20 10:02:04;;;;;;;2.30;0.90;;;20.00;99.90;;;;;;4991643;28;20092;-70
2023/07/20 10:04:32;;;;;;;3.03;1.17;;;20.00;99.90;;;;;;4991619;28;20563;-71
2023/07/20 10:07:02;;;;;;;2.90;1.08;;;19.90;99.90;;;;;;4999307;28;20050;-70
2023/07/20 10:09:29;;;;;;;3.28;1.10;;;19.90;99.90;;;;;;4983178;28;20107;-71
2023/07/20 10:11:58;;;;;;;1.15;0.70;;;19.90;99.90;;;;;;4984164;28;20560;-70
2023/07/20 10:14:27;;;;;;;2.10;0.77;;;19.90;99.90;;;;;;4991094;28;20078;-73
2023/07/20 10:16:59;;;;;;;2.67;1.08;;;20.10;99.90;;;;;;4990399;28;20045;-73
2023/07/20 10:19:44;;;;;;;3.17;0.93;;;20.40;99.90;;;;;;4993807;28;20093;-74
2023/07/20 10:22:26;;;;;;;3.28;1.00;;;20.70;99.90;;;;;;4966212;28;20125;-74
2023/07/20 10:24:54;;;;;;;3.00;0.88;;;21.00;99.90;;;;;;4984703;28;20072;-73
2023/07/20 10:27:23;;;;;;;;;;;21.20;99.90;;;;;;4981334;28;20084;-74
2023/07/20 10:29:49;;;;;;;3.03;1.08;;;21.30;99.90;;;;;;4982545;28;19925;-74
2023/07/20 10:32:15;;;;;;;3.25;1.17;;;21.40;99.90;;;;;;4991258;28;20042;-73
2023/07/20 10:34:41;;;;;;;4.80;1.13;;;21.50;99.90;;;;;;4966437;28;20162;-73
2023/07/20 10:37:06;;;;;;;2.45;0.90;;;21.50;99.60;;;;;;4976527;28;20129;-73
2023/07/20 10:39:33;;;;;;;2.08;1.00;;;21.50;99.60;;;;;;4988148;28;20050;-73
2023/07/20 10:42:12;;;;;;;1.85;0.85;;;21.30;99.50;;;;;;4974258;28;20030;-71
2023/07/20 10:44:38;;;;;;;3.17;0.98;;;21.20;99.20;;;;;;4975586;28;20061;-72
2023/07/20 10:47:10;;;;;;;2.38;0.80;;;21.00;98.90;;;;;;4983927;28;20056;-73
2023/07/20 10:49:55;;;;;;;2.17;0.93;;;20.90;98.80;;;;;;4999866;28;20042;-73
2023/07/20 10:52:21;;;;;;;1.67;0.82;;;20.80;99.10;;;;;;4969150;28;20062;-72
2023/07/20 10:54:47;;;;;;;2.65;1.00;;;20.70;99.80;;;;;;4977300;28;20064;-72
2023/07/20 10:57:28;;;;;;;4.03;0.83;;;20.70;99.70;;;;;;4972252;28;20045;-72
2023/07/20 11:00:08;;;;;;;3.63;1.20;;;20.60;99.50;;;;;;4993856;28;20452;-73
2023/07/20 11:02:44;;;;;;;3.10;1.10;;;20.70;99.90;;;;;;4991078;28;20082;-72
2023/07/20 11:05:37;;;;;;;2.90;1.40;;;20.70;99.90;;;;;;4997429;28;20073;-72
2023/07/20 11:08:05;;;;;;;3.53;1.17;;;20.70;99.90;;;;;;4991367;28;20084;-73
2023/07/20 11:10:31;;;;;;;2.58;1.30;;;20.70;99.90;;;;;;4976303;28;20136;-73
2023/07/20 11:13:15;;;;;;;1.33;1.10;;;20.70;99.90;;;;;;4972467;28;20050;-71
2023/07/20 11:15:56;;;;;;;2.17;1.10;;;20.70;99.90;;;;;;4985292;28;20505;-73
2023/07/20 11:18:25;;;;;;;2.10;1.15;;;20.70;99.90;;;;;;4989777;28;20049;-72
2023/07/20 11:20:52;;;;;;;2.97;1.00;;;20.70;99.90;;;;;;4978414;28;20048;-73
2023/07/20 11:23:20;;;;;;;2.83;1.10;;;20.60;99.90;;;;;;4978462;28;20061;-72
2023/07/20 11:25:45;;;;;;;2.78;1.20;;;20.40;99.90;;;;;;4968675;28;20394;-73
2023/07/20 11:28:11;;;;;;;2.35;1.00;;;20.20;99.90;;;;;;4987821;28;20081;-71
2023/07/20 11:30:38;;;;;;;2.70;0.93;;;20.10;99.90;;;;;;4981881;28;20089;-72
2023/07/20 11:33:10;;;;;;;2.45;0.98;;;19.90;99.90;;;;;;4983128;28;20049;-72
2023/07/20 11:35:44;;;;;;;4.47;1.25;;;19.80;99.90;;;;;;4982663;28;20140;-71
2023/07/20 11:38:09;;;;;;;1.58;1.00;;;19.80;99.90;;;;;;4976611;28;20060;-71
2023/07/20 11:40:35;;;;;;;3.63;1.13;;;19.70;99.90;;;;;;4969777;28;20054;-72
2023/07/20 11:43:01;;;;;;;1.40;0.90;;;19.60;99.90;;;;;;4978883;28;20078;-72
2023/07/20 11:45:32;;;;;;;2.70;0.90;;;19.60;99.90;;;;;;4982728;28;20054;-72
2023/07/20 11:47:59;;;;;;;0.80;0.70;;;19.60;99.90;;;;;;4992951;28;20061;-72
2023/07/20 11:50:24;;;;;;;2.35;0.82;;;19.70;99.90;;;;;;4983176;28;20378;-72
2023/07/20 11:52:50;;;;;;;1.33;0.68;;;19.60;99.90;;;;;;4981291;28;20061;-71
2023/07/20 11:55:16;;;;;;;1.17;0.70;;;19.70;99.90;;;;;;4979012;28;20397;-72
2023/07/20 11:58:03;;;;;;;1.27;0.70;;;19.70;99.90;;;;;;4978751;28;20065;-71
2023/07/20 12:00:29;;;;;;;0.80;0.70;;;19.80;99.90;;;;;;4978682;28;20062;-72
2023/07/20 12:02:55;;;;;;;0.95;0.70;;;19.90;99.90;;;;;;4980885;28;20065;-72
2023/07/20 12:05:22;;;;;;;2.70;0.80;;;20.00;99.90;;;;;;4974637;28;20054;-71
2023/07/20 12:07:50;;;;;;;;;;;20.10;99.90;;;;;;4967833;28;20111;-71
2023/07/20 12:10:16;;;;;;;1.70;0.80;;;20.20;99.90;;;;;;4981921;28;19929;-72
2023/07/20 12:12:43;;;;;;;1.25;0.80;;;20.30;99.90;;;;;;4970488;28;20038;-71
2023/07/20 12:15:17;;;;;;;1.50;0.80;;;20.40;99.90;;;;;;4995445;28;20096;-74
2023/07/20 12:17:49;;;;;;;2.63;0.90;;;20.50;99.90;;;;;;4988525;28;20042;-73
2023/07/20 12:20:36;;;;;;;2.45;0.98;;;20.70;99.90;;;;;;4989686;28;20049;-74
2023/07/20 12:23:01;;;;;;;;;;;20.80;99.90;;;;;;4976666;28;20057;-73
2023/07/20 12:25:56;;;;;;;2.60;1.00;;;20.90;99.90;;;;;;4983176;28;19925;-73
2023/07/20 12:28:22;;;;;;;1.63;0.82;;;20.90;99.90;;;;;;4963585;28;20061;-73
2023/07/20 12:30:56;;;;;;;3.17;1.10;;;21.00;99.90;;;;;;4981841;28;20057;-73
2023/07/20 12:33:22;;;;;;;1.52;0.90;;;21.10;99.90;;;;;;4972932;28;20049;-74
2023/07/20 12:35:55;;;;;;;1.93;1.00;;;21.20;99.90;;;;;;4979094;28;20510;-74
2023/07/20 12:38:21;;;;;;;2.05;1.00;;;21.40;99.90;;;;;;4986309;28;21383;-74
2023/07/20 12:40:48;;;;;;;1.20;0.98;;;21.60;99.90;;;;;;4975058;28;20421;-73
2023/07/20 12:43:13;;;;;;;2.10;1.20;;;21.90;99.90;;;;;;4979895;28;20053;-73
2023/07/20 12:45:40;;;;;;;2.90;1.55;;;22.10;99.90;;;;;;4959610;28;20058;-74
2023/07/20 12:48:05;;;;;;;3.23;1.00;;;22.20;99.90;;;;;;4976576;28;20045;-74
2023/07/20 12:50:31;;;;;;;1.75;1.02;;;22.40;99.90;;;;;;4974173;28;20050;-72